DLH1AK EDDF-LHBP
Flight info
| Callsign | DLH1AK |
|---|---|
| Flight time | 1h 8m |
| Altitude | 31000 |
| Route | SULUS7S/18 SULUS Z650 VEMUT/N0448F350 DCT PEPIK DCT NIT/N0401F230 M748 ARFOX |
| Aircraft | A321/M-SDE3FGHIRWY/LB1 |
Departure
| Time | 2026-05-04 16:20 |
|---|---|
| Airport | Frankfurt Main Airport (EDDF) |
Arrival
| Time | 2026-05-04 17:29 |
|---|---|
| Airport | Budapest Liszt Ferenc International Airport (LHBP) |
| Time | Latitude | Longitude | Altitude | Speed | Heading |
|---|---|---|---|---|---|
| 2026-05-04 15:41 | 50.04655 | 8.56810 | 364 ft | 0 kts | 295° |
| 2026-05-04 16:01 | 50.04652 | 8.56822 | 356 ft | 4 kts | 295° |
| 2026-05-04 16:01 | 50.04640 | 8.56860 | 358 ft | 4 kts | 295° |
| 2026-05-04 16:02 | 50.04632 | 8.56892 | 358 ft | 4 kts | 276° |
| 2026-05-04 16:02 | 50.04636 | 8.56925 | 361 ft | 4 kts | 213° |
| 2026-05-04 16:02 | 50.04662 | 8.56940 | 358 ft | 4 kts | 204° |
| 2026-05-04 16:03 | 50.04651 | 8.56933 | 364 ft | 0 kts | 204° |
| 2026-05-04 16:11 | 50.04456 | 8.56830 | 364 ft | 20 kts | 232° |
| 2026-05-04 16:11 | 50.04394 | 8.56586 | 360 ft | 31 kts | 249° |
| 2026-05-04 16:12 | 50.04236 | 8.55926 | 357 ft | 22 kts | 249° |
| 2026-05-04 16:12 | 50.04070 | 8.55232 | 358 ft | 14 kts | 249° |
| 2026-05-04 16:13 | 50.04030 | 8.55066 | 358 ft | 0 kts | 250° |
| 2026-05-04 16:13 | 50.04016 | 8.55003 | 356 ft | 12 kts | 250° |
| 2026-05-04 16:14 | 50.03918 | 8.54598 | 351 ft | 18 kts | 249° |
| 2026-05-04 16:14 | 50.03798 | 8.54215 | 356 ft | 21 kts | 247° |
| 2026-05-04 16:15 | 50.03632 | 8.53529 | 337 ft | 24 kts | 249° |
| 2026-05-04 16:16 | 50.03538 | 8.53142 | 338 ft | 16 kts | 250° |
| 2026-05-04 16:16 | 50.03444 | 8.52773 | 333 ft | 9 kts | 249° |
| 2026-05-04 16:17 | 50.03370 | 8.52595 | 334 ft | 11 kts | 189° |
| 2026-05-04 16:18 | 50.03309 | 8.52594 | 334 ft | 0 kts | 180° |
| 2026-05-04 16:19 | 50.03301 | 8.52594 | 332 ft | 6 kts | 180° |
| 2026-05-04 16:19 | 50.02263 | 8.52604 | 334 ft | 142 kts | 179° |
| 2026-05-04 16:20 | 49.98458 | 8.52685 | 1549 ft | 195 kts | 185° |
| 2026-05-04 16:20 | 49.95904 | 8.54231 | 2148 ft | 230 kts | 125° |
| 2026-05-04 16:21 | 49.94054 | 8.61358 | 3635 ft | 248 kts | 95° |
| 2026-05-04 16:22 | 49.93701 | 8.67074 | 3993 ft | 274 kts | 105° |
| 2026-05-04 16:22 | 49.90066 | 8.73553 | 5598 ft | 268 kts | 146° |
| 2026-05-04 16:23 | 49.86643 | 8.80452 | 7890 ft | 278 kts | 123° |
| 2026-05-04 16:24 | 49.82726 | 8.91264 | 10272 ft | 307 kts | 124° |
| 2026-05-04 16:25 | 49.80503 | 8.97331 | 10876 ft | 334 kts | 123° |
| 2026-05-04 16:26 | 49.76038 | 9.10333 | 13311 ft | 351 kts | 110° |
| 2026-05-04 16:26 | 49.74231 | 9.21529 | 14915 ft | 363 kts | 107° |
| 2026-05-04 16:27 | 49.72994 | 9.29173 | 15995 ft | 370 kts | 107° |
| 2026-05-04 16:28 | 49.71077 | 9.40887 | 17550 ft | 380 kts | 107° |
| 2026-05-04 16:28 | 49.69109 | 9.52917 | 18938 ft | 390 kts | 107° |
| 2026-05-04 16:29 | 49.67468 | 9.69625 | 20719 ft | 408 kts | 84° |
| 2026-05-04 16:30 | 49.69245 | 9.82615 | 21983 ft | 415 kts | 83° |
| 2026-05-04 16:31 | 49.70089 | 9.91488 | 22829 ft | 420 kts | 84° |
| 2026-05-04 16:31 | 49.71453 | 10.04968 | 23930 ft | 427 kts | 82° |
| 2026-05-04 16:32 | 49.72984 | 10.18623 | 24915 ft | 434 kts | 82° |
| 2026-05-04 16:33 | 49.74004 | 10.27873 | 25574 ft | 438 kts | 82° |
| 2026-05-04 16:33 | 49.75013 | 10.37251 | 26155 ft | 445 kts | 83° |
| 2026-05-04 16:34 | 49.76009 | 10.46742 | 26783 ft | 449 kts | 82° |
| 2026-05-04 16:34 | 49.76513 | 10.51521 | 27100 ft | 451 kts | 82° |
| 2026-05-04 16:35 | 49.78043 | 10.66060 | 28038 ft | 458 kts | 82° |
| 2026-05-04 16:35 | 49.79570 | 10.80762 | 28933 ft | 465 kts | 82° |
| 2026-05-04 16:36 | 49.80078 | 10.85708 | 29229 ft | 467 kts | 82° |
| 2026-05-04 16:36 | 49.81090 | 10.95679 | 29804 ft | 471 kts | 82° |
| 2026-05-04 16:37 | 49.82104 | 11.05731 | 30353 ft | 474 kts | 82° |
| 2026-05-04 16:37 | 49.82611 | 11.10789 | 30623 ft | 476 kts | 82° |
| 2026-05-04 16:37 | 49.83626 | 11.20936 | 30958 ft | 478 kts | 82° |
| 2026-05-04 16:38 | 49.84640 | 11.31113 | 30963 ft | 478 kts | 82° |
| 2026-05-04 16:39 | 49.86142 | 11.46515 | 30968 ft | 489 kts | 83° |
| 2026-05-04 16:39 | 49.87115 | 11.56637 | 30977 ft | 468 kts | 83° |
| 2026-05-04 16:40 | 49.87916 | 11.66814 | 30988 ft | 481 kts | 90° |
| 2026-05-04 16:40 | 49.87326 | 11.77200 | 30996 ft | 487 kts | 100° |
| 2026-05-04 16:41 | 49.85145 | 12.01578 | 31002 ft | 489 kts | 100° |
| 2026-05-04 16:43 | 49.82779 | 12.27689 | 30969 ft | 490 kts | 100° |
| 2026-05-04 16:43 | 49.81336 | 12.43305 | 30961 ft | 491 kts | 101° |
| 2026-05-04 16:45 | 49.75585 | 12.73579 | 30975 ft | 489 kts | 110° |
| 2026-05-04 16:46 | 49.70500 | 12.98762 | 30960 ft | 490 kts | 109° |
| 2026-05-04 16:47 | 49.66378 | 13.18839 | 30958 ft | 490 kts | 110° |
| 2026-05-04 16:48 | 49.62237 | 13.38864 | 30966 ft | 490 kts | 110° |
| 2026-05-04 16:49 | 49.58066 | 13.58863 | 30960 ft | 490 kts | 110° |
| 2026-05-04 16:50 | 49.53855 | 13.78773 | 30979 ft | 488 kts | 110° |
| 2026-05-04 16:51 | 49.50692 | 13.93646 | 30980 ft | 487 kts | 110° |
| 2026-05-04 16:52 | 49.46443 | 14.13436 | 30959 ft | 489 kts | 110° |
| 2026-05-04 16:53 | 49.43228 | 14.28332 | 30955 ft | 490 kts | 110° |
| 2026-05-04 16:54 | 49.38880 | 14.48194 | 30955 ft | 491 kts | 110° |
| 2026-05-04 16:55 | 49.32304 | 14.77950 | 30962 ft | 492 kts | 110° |
| 2026-05-04 16:56 | 49.26741 | 15.02806 | 30973 ft | 492 kts | 110° |
| 2026-05-04 16:57 | 49.23387 | 15.17654 | 30977 ft | 492 kts | 110° |
| 2026-05-04 16:58 | 49.18888 | 15.37418 | 30987 ft | 491 kts | 110° |
| 2026-05-04 17:00 | 49.12085 | 15.66934 | 30981 ft | 490 kts | 110° |
| 2026-05-04 17:01 | 49.06377 | 15.91401 | 30990 ft | 489 kts | 110° |
| 2026-05-04 17:02 | 49.01781 | 16.10887 | 30990 ft | 488 kts | 110° |
| 2026-05-04 17:03 | 48.98315 | 16.25446 | 30992 ft | 487 kts | 110° |
| 2026-05-04 17:03 | 48.94844 | 16.39969 | 30987 ft | 487 kts | 110° |
| 2026-05-04 17:04 | 48.90169 | 16.59345 | 30986 ft | 486 kts | 110° |
| 2026-05-04 17:05 | 48.85486 | 16.78601 | 30981 ft | 486 kts | 110° |
| 2026-05-04 17:06 | 48.81964 | 16.93012 | 30992 ft | 485 kts | 110° |
| 2026-05-04 17:07 | 48.78749 | 17.05712 | 30994 ft | 484 kts | 115° |
| 2026-05-04 17:07 | 48.76454 | 17.11588 | 30990 ft | 484 kts | 127° |
| 2026-05-04 17:07 | 48.74421 | 17.15649 | 30998 ft | 484 kts | 127° |
| 2026-05-04 17:08 | 48.68327 | 17.27823 | 30998 ft | 484 kts | 127° |
| 2026-05-04 17:09 | 48.64267 | 17.35939 | 30994 ft | 484 kts | 127° |
| 2026-05-04 17:09 | 48.60197 | 17.44033 | 30894 ft | 484 kts | 127° |
| 2026-05-04 17:10 | 48.56121 | 17.52100 | 30402 ft | 483 kts | 128° |
| 2026-05-04 17:10 | 48.49996 | 17.64155 | 28612 ft | 482 kts | 128° |
| 2026-05-04 17:11 | 48.47958 | 17.68165 | 27107 ft | 482 kts | 128° |
| 2026-05-04 17:11 | 48.45913 | 17.72183 | 25439 ft | 485 kts | 128° |
| 2026-05-04 17:11 | 48.41894 | 17.80059 | 24192 ft | 449 kts | 128° |
| 2026-05-04 17:12 | 48.40002 | 17.83762 | 23626 ft | 434 kts | 128° |
| 2026-05-04 17:12 | 48.36387 | 17.90816 | 21820 ft | 418 kts | 129° |
| 2026-05-04 17:13 | 48.31181 | 18.00928 | 19330 ft | 398 kts | 130° |
| 2026-05-04 17:14 | 48.26078 | 18.10293 | 17477 ft | 374 kts | 134° |
| 2026-05-04 17:14 | 48.24925 | 18.12201 | 17124 ft | 370 kts | 135° |
| 2026-05-04 17:14 | 48.21467 | 18.17810 | 16031 ft | 363 kts | 135° |
| 2026-05-04 17:15 | 48.19767 | 18.20575 | 15493 ft | 359 kts | 135° |
| 2026-05-04 17:15 | 48.16453 | 18.26041 | 14728 ft | 349 kts | 134° |
| 2026-05-04 17:16 | 48.12962 | 18.30932 | 13632 ft | 339 kts | 141° |
| 2026-05-04 17:16 | 48.07653 | 18.37651 | 11328 ft | 327 kts | 142° |
| 2026-05-04 17:17 | 48.05914 | 18.39839 | 11096 ft | 327 kts | 142° |
| 2026-05-04 17:17 | 48.00661 | 18.46480 | 11027 ft | 329 kts | 142° |
| 2026-05-04 17:18 | 47.98914 | 18.48689 | 11029 ft | 328 kts | 142° |
| 2026-05-04 17:18 | 47.95477 | 18.53042 | 11037 ft | 310 kts | 142° |
| 2026-05-04 17:19 | 47.92307 | 18.57055 | 10717 ft | 299 kts | 142° |
| 2026-05-04 17:19 | 47.88963 | 18.61247 | 9203 ft | 332 kts | 142° |
| 2026-05-04 17:20 | 47.85370 | 18.65752 | 8982 ft | 340 kts | 142° |
| 2026-05-04 17:20 | 47.81747 | 18.70300 | 8991 ft | 340 kts | 142° |
| 2026-05-04 17:20 | 47.79941 | 18.72565 | 8993 ft | 340 kts | 142° |
| 2026-05-04 17:21 | 47.76406 | 18.76986 | 8990 ft | 317 kts | 142° |
| 2026-05-04 17:21 | 47.73053 | 18.81171 | 8993 ft | 314 kts | 142° |
| 2026-05-04 17:22 | 47.71382 | 18.83249 | 8999 ft | 314 kts | 142° |
| 2026-05-04 17:22 | 47.69713 | 18.85322 | 8822 ft | 311 kts | 142° |
| 2026-05-04 17:23 | 47.64817 | 18.91401 | 6826 ft | 302 kts | 142° |
| 2026-05-04 17:23 | 47.63219 | 18.93387 | 6144 ft | 299 kts | 142° |
| 2026-05-04 17:23 | 47.60110 | 18.97334 | 4869 ft | 290 kts | 138° |
| 2026-05-04 17:24 | 47.58730 | 18.99483 | 4435 ft | 282 kts | 134° |
| 2026-05-04 17:24 | 47.55171 | 19.05341 | 3458 ft | 234 kts | 135° |
| 2026-05-04 17:25 | 47.54103 | 19.07079 | 3133 ft | 226 kts | 136° |
| 2026-05-04 17:25 | 47.52087 | 19.10360 | 2568 ft | 207 kts | 136° |
| 2026-05-04 17:26 | 47.50301 | 19.13268 | 2069 ft | 171 kts | 136° |
| 2026-05-04 17:26 | 47.48171 | 19.16725 | 1444 ft | 142 kts | 136° |
| 2026-05-04 17:27 | 47.46837 | 19.18883 | 1049 ft | 145 kts | 135° |
| 2026-05-04 17:27 | 47.45470 | 19.21105 | 678 ft | 145 kts | 133° |
| 2026-05-04 17:28 | 47.44167 | 19.23213 | 453 ft | 120 kts | 132° |
| 2026-05-04 17:29 | 47.43642 | 19.24403 | 457 ft | 15 kts | 108° |
| 2026-05-04 17:29 | 47.43441 | 19.24793 | 457 ft | 17 kts | 132° |
| 2026-05-04 17:30 | 47.43298 | 19.25045 | 457 ft | 16 kts | 98° |
| 2026-05-04 17:31 | 47.43379 | 19.25221 | 457 ft | 0 kts | 42° |
| 2026-05-04 17:31 | 47.43383 | 19.25226 | 457 ft | 2 kts | 42° |
| 2026-05-04 17:32 | 47.43395 | 19.25347 | 455 ft | 10 kts | 133° |
| 2026-05-04 17:33 | 47.43508 | 19.25608 | 457 ft | 14 kts | 42° |
| 2026-05-04 17:33 | 47.43582 | 19.25707 | 457 ft | 15 kts | 42° |
| 2026-05-04 17:34 | 47.43702 | 19.26023 | 457 ft | 12 kts | 132° |
| 2026-05-04 17:34 | 47.43641 | 19.26124 | 457 ft | 14 kts | 132° |
| 2026-05-04 17:35 | 47.43453 | 19.26169 | 457 ft | 0 kts | 177° |